To NAV CANADA Home Page Login to a new session Search on AWWS site Feedback and Comments Disclaimer Vers la page française équivalente Tips FAQ What's new on the site To the Forecasts and Observations / NOTAM section To "File a Flight Plan" website Publications and other links Update of the User's profile FIC Telephone Numbers My Weather Data Folder Route Weather Data Regional Weather Data Local Weather Data To the Forecasts and Observations / NOTAM section
Request Generated 04/30/2017 at 20:32:47 UTC . Weather information available at that time is displayed.

METAR/TAF

RANKIN INLET/NU    

METAR CYRT 302000Z 01015KT 15SM SKC M15/M19 A3020 RMK SLP231=
METAR CYRT 301900Z 01013KT 15SM FEW250 M16/M19 A3019 RMK CI1 CI TR
SLP230=
METAR CYRT 301800Z 01016KT 15SM FEW250 M16/M20 A3017 RMK CI1 SLP223=

TAF CYRT 301739Z 3018/0106 01012KT P6SM FEW050 FEW200
RMK NXT FCST BY 010000Z=
Your time UTC time
Weather data provided by Environment Canada and NAV CANADA